Time;durP1;ratioP1;P1;durP2;ratioP2;P2;SDS_P1;SDS_P2;PMS_P1;PMS_P2;Temp;Humidity;BMP_temperature;BMP_pressure;BME280_temperature;BME280_humidity;BME280_pressure;Samples;Min_cycle;Max_cycle;Signal;HPM_P1;HPM_P2
2023/12/11 00:01:17;;;;;;;61.75;8.90;;;9.80;99.90;;;;;;6356461;22;20085;-93
2023/12/11 00:03:52;;;;;;;53.95;8.88;;;10.50;99.90;;;;;;6385785;22;20030;-94
2023/12/11 00:06:40;;;;;;;56.13;9.55;;;10.50;99.90;;;;;;6380211;22;20002;-93
2023/12/11 00:09:33;;;;;;;63.25;9.75;;;10.00;99.90;;;;;;6385478;22;19994;-93
2023/12/11 00:15:16;;;;;;;56.08;9.55;;;10.50;99.90;;;;;;6204375;23;20053;-94
2023/12/11 00:17:46;;;;;;;45.80;9.32;;;10.40;99.90;;;;;;6203015;23;20032;-94
2023/12/11 00:23:10;;;;;;;67.68;8.77;;;9.80;99.90;;;;;;6168584;23;20014;-94
2023/12/11 00:26:04;;;;;;;52.80;7.57;;;10.50;99.90;;;;;;6163399;23;20005;-93
2023/12/11 00:28:52;;;;;;;55.55;8.18;;;10.50;99.90;;;;;;6161975;23;20006;-94
2023/12/11 00:31:32;;;;;;;53.63;9.20;;;10.50;99.90;;;;;;6217237;23;20007;-95
2023/12/11 00:34:33;;;;;;;61.28;10.43;;;10.50;99.90;;;;;;6214912;23;20069;-94
2023/12/11 00:48:46;;;;;;;42.20;8.05;;;10.30;99.90;;;;;;6020492;23;20000;-95
2023/12/11 00:51:34;;;;;;;46.42;8.15;;;10.50;99.90;;;;;;6011015;23;20437;-95
2023/12/11 00:54:21;;;;;;;44.33;9.10;;;10.50;99.90;;;;;;6063210;23;20089;-93
2023/12/11 00:57:01;;;;;;;49.38;7.72;;;10.50;99.90;;;;;;6066700;23;20003;-94
2023/12/11 00:59:50;;;;;;;;;;;10.50;99.90;;;;;;6082468;23;20021;-95
2023/12/11 01:02:17;;;;;;;50.95;7.68;;;10.50;99.90;;;;;;6158416;23;19939;-93
2023/12/11 01:05:05;;;;;;;;;;;;;;;;;;;;;
2023/12/11 01:07:46;;;;;;;52.60;8.95;;;10.50;99.90;;;;;;6276000;22;20037;-94
2023/12/11 01:10:42;;;;;;;;;;;;;;;;;;;;;
2023/12/11 01:18:56;;;;;;;59.72;8.02;;;10.50;99.90;;;;;;6378166;22;20048;-93
2023/12/11 01:21:46;;;;;;;44.28;7.32;;;10.50;99.90;;;;;;6384308;22;20002;-93
2023/12/11 01:24:34;;;;;;;59.03;7.77;;;10.50;99.90;;;;;;6372830;22;20063;-94
2023/12/11 01:27:52;;;;;;;44.97;8.07;;;10.50;99.90;;;;;;6309116;22;20244;-94
2023/12/11 01:30:23;;;;;;;41.83;7.50;;;10.50;99.90;;;;;;6259950;22;19991;-94
2023/12/11 01:33:09;;;;;;;41.15;8.13;;;10.40;99.90;;;;;;6257372;22;20008;-93
2023/12/11 01:35:48;;;;;;;56.22;8.30;;;10.40;99.90;;;;;;6245673;23;20030;-94
2023/12/11 01:49:26;;;;;;;;;;;;;;;;;;;;;
2023/12/11 01:52:03;;;;;;;;;;;;;;;;;;;;;
2023/12/11 01:57:55;;;;;;;48.30;7.78;;;10.20;99.90;;;;;;6132116;23;20005;-92
2023/12/11 02:01:05;;;;;;;40.80;7.57;;;10.20;99.90;;;;;;6138195;23;20010;-94
2023/12/11 02:15:03;;;;;;;;;;;;;;;;;;;;;
2023/12/11 02:18:37;;;;;;;46.65;7.80;;;9.70;99.90;;;;;;6099803;23;20085;-94
2023/12/11 02:21:31;;;;;;;60.60;8.70;;;10.10;99.90;;;;;;6135732;23;20061;-95
2023/12/11 02:24:24;;;;;;;41.83;7.10;;;10.50;99.90;;;;;;6226091;23;20495;-95
2023/12/11 02:27:42;;;;;;;50.45;7.55;;;10.50;99.90;;;;;;6268922;22;19999;-94
2023/12/11 02:31:02;;;;;;;42.25;6.20;;;10.40;99.90;;;;;;6347876;22;20010;-95
2023/12/11 02:33:29;;;;;;;42.88;7.47;;;10.40;99.90;;;;;;6346944;22;20018;-95
2023/12/11 02:38:51;;;;;;;;;;;;;;;;;;;;;
2023/12/11 02:41:40;;;;;;;;;;;;;;;;;;;;;
2023/12/11 02:47:18;;;;;;;43.63;5.85;;;10.40;99.90;;;;;;6376697;22;20094;-94
2023/12/11 02:50:01;;;;;;;52.33;8.88;;;10.40;99.90;;;;;;6376238;22;20002;-94
2023/12/11 02:52:29;;;;;;;44.30;7.50;;;10.30;99.90;;;;;;6395730;22;19985;-93
2023/12/11 02:55:01;;;;;;;57.80;8.85;;;10.40;99.90;;;;;;6378054;22;20016;-93
2023/12/11 02:57:31;;;;;;;57.10;8.07;;;10.40;99.90;;;;;;6389661;22;20050;-93
2023/12/11 03:00:21;;;;;;;43.50;8.50;;;10.30;99.90;;;;;;6381747;22;20053;-92
2023/12/11 03:03:10;;;;;;;58.43;8.40;;;10.40;99.90;;;;;;6389126;22;20018;-92
2023/12/11 03:05:38;;;;;;;50.15;8.50;;;10.50;99.90;;;;;;6385354;22;19999;-93
2023/12/11 03:08:13;;;;;;;42.78;8.35;;;10.50;99.90;;;;;;6392251;22;20002;-93
2023/12/11 03:10:39;;;;;;;55.78;8.45;;;10.60;99.90;;;;;;6376254;22;20009;-92
2023/12/11 03:15:55;;;;;;;54.07;7.73;;;10.60;99.90;;;;;;6390810;22;20058;-92
2023/12/11 03:18:25;;;;;;;52.83;8.95;;;10.70;99.90;;;;;;6380986;22;20013;-93
2023/12/11 03:20:55;;;;;;;58.60;8.57;;;11.10;99.90;;;;;;6380930;22;20003;-94
2023/12/11 03:23:38;;;;;;;54.63;10.40;;;10.60;99.90;;;;;;6379738;22;20074;-93
2023/12/11 03:26:12;;;;;;;43.60;7.35;;;10.70;99.90;;;;;;6378407;22;20005;-93
2023/12/11 03:28:38;;;;;;;60.05;8.80;;;10.10;99.90;;;;;;6373910;22;20002;-93
2023/12/11 03:31:09;;;;;;;39.08;6.25;;;10.70;99.90;;;;;;6377679;22;19994;-93
2023/12/11 03:33:37;;;;;;;54.90;8.75;;;10.80;99.90;;;;;;6379999;22;20458;-93
2023/12/11 03:39:43;;;;;;;53.60;8.30;;;10.70;99.90;;;;;;6401452;22;20113;-93
2023/12/11 03:42:11;;;;;;;54.92;7.80;;;10.70;99.90;;;;;;6406615;22;20041;-92
2023/12/11 03:44:44;;;;;;;48.47;8.25;;;10.30;99.90;;;;;;6412051;22;20451;-92
2023/12/11 03:47:10;;;;;;;43.58;8.63;;;10.10;99.90;;;;;;6424772;22;19989;-92
2023/12/11 03:50:13;;;;;;;37.45;7.07;;;11.40;99.90;;;;;;6426011;22;20002;-93
2023/12/11 03:53:03;;;;;;;48.42;7.38;;;10.70;99.90;;;;;;6288866;22;20317;-94
2023/12/11 03:55:48;;;;;;;40.78;7.28;;;10.70;99.90;;;;;;6385093;22;20445;-93
2023/12/11 03:58:36;;;;;;;48.83;7.28;;;10.00;99.90;;;;;;6412477;22;19998;-93
2023/12/11 04:01:24;;;;;;;48.88;8.25;;;10.70;99.90;;;;;;6415832;22;20457;-92
2023/12/11 04:03:50;;;;;;;35.83;6.55;;;10.70;99.90;;;;;;6414175;22;20046;-93
2023/12/11 04:06:26;;;;;;;47.30;7.18;;;10.70;99.90;;;;;;6417989;22;20012;-93
2023/12/11 04:09:14;;;;;;;54.28;8.70;;;10.70;99.90;;;;;;6417020;22;20006;-93
2023/12/11 04:12:06;;;;;;;46.97;8.07;;;10.60;99.90;;;;;;6411960;22;20033;-94
2023/12/11 04:14:57;;;;;;;48.67;7.95;;;10.70;99.90;;;;;;6412372;22;20027;-94
2023/12/11 04:17:23;;;;;;;45.47;8.55;;;10.70;99.90;;;;;;6413003;22;20002;-93
2023/12/11 04:20:22;;;;;;;54.92;8.05;;;10.70;99.90;;;;;;6412426;22;20101;-93
2023/12/11 04:23:13;;;;;;;67.20;9.45;;;10.70;99.90;;;;;;6422687;22;20025;-94
2023/12/11 04:26:41;;;;;;;61.03;7.40;;;10.70;99.90;;;;;;6415365;22;20006;-93
2023/12/11 04:29:09;;;;;;;44.65;7.95;;;10.10;99.90;;;;;;6405609;22;20076;-93
2023/12/11 04:31:35;;;;;;;59.00;8.30;;;10.20;99.90;;;;;;6414678;22;20009;-92
2023/12/11 04:34:09;;;;;;;44.35;8.52;;;10.10;99.90;;;;;;6413076;22;20002;-93
2023/12/11 04:36:35;;;;;;;39.40;8.10;;;10.80;99.90;;;;;;6405564;22;20123;-93
2023/12/11 04:42:05;;;;;;;46.00;7.72;;;10.60;99.90;;;;;;6426447;22;20057;-92
2023/12/11 04:44:58;;;;;;;56.00;7.78;;;10.80;99.90;;;;;;6419047;22;20001;-93
2023/12/11 04:47:46;;;;;;;49.10;8.00;;;10.80;99.90;;;;;;6429435;22;20002;-93
2023/12/11 04:50:29;;;;;;;49.47;9.02;;;10.80;99.90;;;;;;6414997;22;20005;-94
2023/12/11 04:53:04;;;;;;;47.80;8.88;;;10.40;99.90;;;;;;6413451;22;20002;-93
2023/12/11 04:55:48;;;;;;;46.83;8.60;;;10.50;99.90;;;;;;6409410;22;20014;-92
2023/12/11 05:01:47;;;;;;;53.25;8.55;;;10.90;99.90;;;;;;6320959;22;20425;-91
2023/12/11 05:04:16;;;;;;;41.83;7.03;;;10.90;99.90;;;;;;6407165;22;20437;-91
2023/12/11 05:07:28;;;;;;;;;;;;;;;;;;;;;
2023/12/11 05:09:54;;;;;;;41.60;6.35;;;10.30;99.90;;;;;;6330500;22;20087;-92
2023/12/11 05:12:29;;;;;;;39.30;6.57;;;10.90;99.90;;;;;;6405174;22;20409;-93
2023/12/11 05:14:59;;;;;;;55.53;7.10;;;10.90;99.90;;;;;;6405703;22;20026;-92
2023/12/11 05:17:45;;;;;;;51.65;7.00;;;10.90;99.90;;;;;;6381188;22;20081;-92
2023/12/11 05:20:18;;;;;;;54.97;7.75;;;10.90;99.90;;;;;;6404064;22;20042;-91
2023/12/11 05:22:47;;;;;;;34.35;6.45;;;10.90;99.90;;;;;;6411465;22;20014;-92
2023/12/11 05:25:13;;;;;;;41.55;6.20;;;10.20;99.90;;;;;;6401330;22;19999;-90
2023/12/11 05:27:41;;;;;;;36.85;7.15;;;11.00;99.90;;;;;;6408174;22;20024;-92
2023/12/11 05:30:07;;;;;;;37.63;6.40;;;10.90;99.90;;;;;;6404688;22;20006;-92
2023/12/11 05:32:33;;;;;;;41.67;6.32;;;10.80;99.90;;;;;;6406237;22;20005;-91
2023/12/11 05:35:12;;;;;;;52.25;7.80;;;10.30;99.90;;;;;;6413127;22;20001;-93
2023/12/11 05:37:39;;;;;;;38.58;7.18;;;10.80;99.90;;;;;;6428030;22;20001;-91
2023/12/11 05:40:07;;;;;;;38.85;5.85;;;10.70;99.90;;;;;;6412896;22;20006;-92
2023/12/11 05:42:40;;;;;;;39.13;6.63;;;10.70;99.90;;;;;;6407416;22;20013;-94
2023/12/11 05:45:16;;;;;;;;;;;;;;;;;;;;;
2023/12/11 05:47:55;;;;;;;32.28;6.40;;;10.80;99.90;;;;;;6378170;22;20080;-93
2023/12/11 05:53:20;;;;;;;44.65;7.22;;;10.80;99.90;;;;;;6406028;22;20009;-92
2023/12/11 05:55:46;;;;;;;28.63;5.47;;;10.70;99.90;;;;;;6403354;22;19998;-93
2023/12/11 05:58:15;;;;;;;34.17;4.82;;;10.60;99.90;;;;;;6404988;22;20010;-91
2023/12/11 06:00:45;;;;;;;34.40;7.05;;;10.50;99.90;;;;;;6402502;22;20429;-93
2023/12/11 06:03:22;;;;;;;28.55;5.63;;;10.50;99.90;;;;;;6415813;22;20010;-93
2023/12/11 06:05:57;;;;;;;26.55;5.68;;;10.40;99.90;;;;;;6408359;22;20064;-92
2023/12/11 06:08:45;;;;;;;31.13;5.40;;;10.40;99.90;;;;;;6400701;22;20400;-92
2023/12/11 06:11:18;;;;;;;35.70;6.75;;;10.30;99.90;;;;;;6398847;22;19998;-93
2023/12/11 06:13:53;;;;;;;27.45;5.18;;;10.30;99.90;;;;;;6399044;22;20326;-92
2023/12/11 06:16:28;;;;;;;28.38;5.18;;;10.20;99.90;;;;;;6395780;22;19998;-92
2023/12/11 06:19:00;;;;;;;29.88;5.10;;;10.20;99.90;;;;;;6375812;22;20096;-92
2023/12/11 06:21:25;;;;;;;35.85;5.80;;;10.20;99.90;;;;;;6400954;22;20006;-93
2023/12/11 06:23:55;;;;;;;26.38;5.30;;;10.20;99.90;;;;;;6407272;22;20018;-92
2023/12/11 06:26:36;;;;;;;27.65;4.60;;;10.20;99.90;;;;;;6408482;22;20022;-91
2023/12/11 06:29:14;;;;;;;26.38;4.78;;;10.30;99.90;;;;;;6410282;22;20046;-92
2023/12/11 06:31:48;;;;;;;27.23;5.00;;;8.70;99.90;;;;;;6422941;22;20001;-92
2023/12/11 06:34:21;;;;;;;18.77;4.43;;;10.30;99.90;;;;;;6405055;22;20034;-92
2023/12/11 06:37:00;;;;;;;27.55;5.82;;;9.80;99.90;;;;;;6400630;22;20013;-92
2023/12/11 06:39:26;;;;;;;18.58;3.83;;;10.30;99.90;;;;;;6400744;22;20006;-91
2023/12/11 06:41:53;;;;;;;34.35;5.28;;;9.80;99.90;;;;;;6402366;22;20556;-92
2023/12/11 06:44:19;;;;;;;27.35;4.72;;;10.30;99.90;;;;;;6400964;22;19998;-93
2023/12/11 06:46:47;;;;;;;22.73;3.70;;;10.30;99.90;;;;;;6401044;22;20020;-91
2023/12/11 06:49:15;;;;;;;33.03;5.25;;;10.20;99.90;;;;;;6403286;22;20020;-91
2023/12/11 06:51:44;;;;;;;31.23;4.55;;;10.20;99.90;;;;;;6404654;22;20305;-91
2023/12/11 06:54:10;;;;;;;27.08;4.65;;;10.20;99.90;;;;;;6411867;22;19998;-91
2023/12/11 07:00:56;;;;;;;22.30;5.13;;;10.00;99.90;;;;;;6296136;22;20111;-93
2023/12/11 07:03:24;;;;;;;22.13;4.05;;;9.30;99.90;;;;;;6293605;22;20024;-93
2023/12/11 07:05:53;;;;;;;29.25;4.28;;;9.90;99.90;;;;;;6422770;22;19982;-93
2023/12/11 07:08:35;;;;;;;;;;;;;;;;;;;;;
2023/12/11 07:11:04;;;;;;;29.10;4.70;;;9.70;99.90;;;;;;6375297;22;20502;-91
2023/12/11 07:13:36;;;;;;;22.00;3.50;;;9.90;99.90;;;;;;6408239;22;20006;-93
2023/12/11 07:16:27;;;;;;;20.20;3.47;;;9.90;99.90;;;;;;6415826;22;20010;-93
2023/12/11 07:18:58;;;;;;;29.58;5.10;;;9.50;99.90;;;;;;6411426;22;20021;-93
2023/12/11 07:21:43;;;;;;;26.63;3.85;;;9.00;99.90;;;;;;6415917;22;20446;-91
2023/12/11 07:26:55;;;;;;;25.60;4.40;;;9.90;99.90;;;;;;6422261;22;20023;-90
2023/12/11 07:29:41;;;;;;;15.80;3.80;;;9.90;99.90;;;;;;6375902;22;20018;-89
2023/12/11 07:32:33;;;;;;;16.70;3.50;;;9.90;99.90;;;;;;6375623;22;20490;-91
2023/12/11 07:35:00;;;;;;;18.95;3.85;;;9.90;99.90;;;;;;6371939;22;20006;-89
2023/12/11 07:37:42;;;;;;;18.83;2.58;;;10.00;99.90;;;;;;6371345;22;20078;-92
2023/12/11 07:40:27;;;;;;;17.88;3.78;;;10.00;99.90;;;;;;6371042;22;19998;-89
2023/12/11 07:45:38;;;;;;;11.60;2.25;;;10.00;99.90;;;;;;6242879;23;20018;-89
2023/12/11 07:48:04;;;;;;;17.13;3.28;;;10.10;99.90;;;;;;6245759;23;20028;-89
2023/12/11 07:50:30;;;;;;;11.68;2.75;;;10.10;99.90;;;;;;6363666;22;20010;-88
2023/12/11 07:52:56;;;;;;;18.08;2.40;;;10.10;99.90;;;;;;6369993;22;20009;-89
2023/12/11 07:55:23;;;;;;;15.15;2.67;;;10.10;99.90;;;;;;6371226;22;20009;-90
2023/12/11 08:01:01;;;;;;;23.85;3.60;;;10.10;99.90;;;;;;6372571;22;20083;-91
2023/12/11 08:06:20;;;;;;;16.10;2.58;;;10.00;99.90;;;;;;6339651;22;19933;-93
2023/12/11 08:09:09;;;;;;;17.38;3.00;;;10.00;99.90;;;;;;6343545;22;20011;-93
2023/12/11 08:11:34;;;;;;;14.15;3.00;;;10.10;99.90;;;;;;6339215;22;20031;-91
2023/12/11 08:14:18;;;;;;;17.10;4.10;;;10.00;99.90;;;;;;6341064;22;20030;-93
2023/12/11 08:17:06;;;;;;;22.10;3.85;;;10.00;99.90;;;;;;6349390;22;19995;-93
2023/12/11 08:19:33;;;;;;;19.33;3.20;;;10.00;99.90;;;;;;6360185;22;20010;-93
2023/12/11 08:22:13;;;;;;;17.55;3.45;;;10.00;99.90;;;;;;6341367;22;20010;-90
2023/12/11 08:24:39;;;;;;;18.38;2.83;;;10.00;99.90;;;;;;6339474;22;20427;-92
2023/12/11 08:27:07;;;;;;;18.25;3.63;;;10.00;99.90;;;;;;6339057;22;19995;-90
2023/12/11 08:29:35;;;;;;;14.82;3.33;;;9.90;99.90;;;;;;6336065;22;19999;-91
2023/12/11 08:32:02;;;;;;;23.40;4.57;;;9.80;99.90;;;;;;6339250;22;20011;-91
2023/12/11 08:34:28;;;;;;;23.70;4.75;;;9.80;99.90;;;;;;6338583;22;20486;-90
2023/12/11 08:36:55;;;;;;;13.95;3.03;;;9.80;99.90;;;;;;6339126;22;20009;-91
2023/12/11 08:39:21;;;;;;;17.88;2.92;;;9.80;99.90;;;;;;6339045;22;20002;-90
2023/12/11 08:41:48;;;;;;;20.20;4.57;;;9.80;99.90;;;;;;6338887;22;20435;-91
2023/12/11 08:44:14;;;;;;;16.70;3.60;;;9.80;99.90;;;;;;6340001;22;20003;-92
2023/12/11 08:46:39;;;;;;;14.48;2.92;;;9.70;99.90;;;;;;6340059;22;20044;-91
2023/12/11 08:49:05;;;;;;;16.42;3.78;;;9.70;99.90;;;;;;6338209;22;20011;-90
2023/12/11 08:51:32;;;;;;;17.10;3.55;;;9.70;99.90;;;;;;6344707;22;19983;-91
2023/12/11 08:53:57;;;;;;;15.82;3.08;;;9.70;99.90;;;;;;6346036;22;20011;-91
2023/12/11 08:56:23;;;;;;;20.60;3.35;;;9.70;99.90;;;;;;6339440;22;20048;-93
2023/12/11 08:58:52;;;;;;;10.85;2.35;;;9.80;99.90;;;;;;6337562;22;20026;-93
2023/12/11 09:01:18;;;;;;;22.30;4.60;;;9.80;99.90;;;;;;6338809;22;20022;-91
2023/12/11 09:03:44;;;;;;;12.13;2.42;;;9.80;99.90;;;;;;6339245;22;20060;-92
2023/12/11 09:06:15;;;;;;;13.30;2.50;;;9.80;99.90;;;;;;6341103;22;19995;-92
2023/12/11 09:08:41;;;;;;;11.95;2.72;;;9.80;99.90;;;;;;6341441;22;19999;-91
2023/12/11 09:11:07;;;;;;;14.18;2.78;;;9.90;99.90;;;;;;6350309;22;20014;-90
2023/12/11 09:13:40;;;;;;;7.63;2.25;;;9.80;99.90;;;;;;6357579;22;20029;-90
2023/12/11 09:16:12;;;;;;;14.60;2.58;;;9.80;99.90;;;;;;6316041;22;20416;-91
2023/12/11 09:18:41;;;;;;;13.73;3.30;;;9.80;99.90;;;;;;6340652;22;20052;-90
2023/12/11 09:21:08;;;;;;;14.25;3.00;;;9.90;99.90;;;;;;6341436;22;20007;-90
2023/12/11 09:23:33;;;;;;;12.60;2.25;;;9.80;99.90;;;;;;6338562;22;20007;-89
2023/12/11 09:26:07;;;;;;;9.45;2.88;;;9.90;99.90;;;;;;6339272;22;20049;-90
2023/12/11 09:28:33;;;;;;;11.00;3.10;;;9.90;99.90;;;;;;6338831;22;20011;-93
2023/12/11 09:30:59;;;;;;;13.90;3.17;;;9.90;99.90;;;;;;6338878;22;20007;-91
2023/12/11 09:33:25;;;;;;;15.93;2.92;;;9.90;99.90;;;;;;6338472;22;20364;-91
2023/12/11 09:35:53;;;;;;;11.88;3.28;;;9.90;99.90;;;;;;6340796;22;20457;-91
2023/12/11 09:38:21;;;;;;;22.67;4.43;;;10.00;99.90;;;;;;6343749;22;20482;-90
2023/12/11 09:40:47;;;;;;;17.63;4.18;;;10.00;99.90;;;;;;6340277;22;20007;-91
2023/12/11 09:43:14;;;;;;;15.65;3.03;;;10.00;99.90;;;;;;6338173;22;20019;-91
2023/12/11 09:45:41;;;;;;;16.77;4.10;;;10.00;99.90;;;;;;6287564;22;20067;-92
2023/12/11 09:48:07;;;;;;;15.23;2.70;;;9.90;99.90;;;;;;6338367;22;20006;-90
2023/12/11 09:50:45;;;;;;;14.10;3.10;;;10.00;99.90;;;;;;6339433;22;19999;-91
2023/12/11 09:53:11;;;;;;;16.55;2.70;;;10.00;99.90;;;;;;6338857;22;19998;-93
2023/12/11 09:55:38;;;;;;;15.93;2.42;;;10.00;99.90;;;;;;6339178;22;20011;-92
2023/12/11 09:58:05;;;;;;;11.90;2.83;;;10.10;99.90;;;;;;6338525;22;20006;-92
2023/12/11 10:00:32;;;;;;;7.45;2.05;;;10.10;99.90;;;;;;6340078;22;20002;-92
2023/12/11 10:03:00;;;;;;;8.90;2.60;;;10.10;99.90;;;;;;6338808;22;20102;-91
2023/12/11 10:05:26;;;;;;;14.45;2.13;;;10.10;99.90;;;;;;6359702;22;20006;-92
2023/12/11 10:07:51;;;;;;;14.07;2.53;;;10.10;99.90;;;;;;6348630;22;20002;-92
2023/12/11 10:10:31;;;;;;;9.95;2.17;;;10.10;99.90;;;;;;6342628;22;20056;-91
2023/12/11 10:13:03;;;;;;;20.15;3.35;;;10.20;99.90;;;;;;6311058;22;20102;-92
2023/12/11 10:15:31;;;;;;;10.40;2.47;;;10.10;99.90;;;;;;6314710;22;20423;-92
2023/12/11 10:18:08;;;;;;;7.70;2.00;;;10.20;99.90;;;;;;6353867;22;20006;-91
2023/12/11 10:20:34;;;;;;;18.08;3.25;;;10.20;99.90;;;;;;6339766;22;19998;-91
2023/12/11 10:23:25;;;;;;;11.15;2.63;;;10.20;99.90;;;;;;6338456;22;20021;-91
2023/12/11 10:25:53;;;;;;;8.65;2.42;;;10.40;99.90;;;;;;6319378;22;20319;-92
2023/12/11 10:28:23;;;;;;;8.30;2.03;;;10.20;99.90;;;;;;6339454;22;20058;-93
2023/12/11 10:30:59;;;;;;;12.60;2.53;;;10.20;99.90;;;;;;6338254;22;20386;-92
2023/12/11 10:33:27;;;;;;;10.18;2.15;;;10.20;99.90;;;;;;6338717;22;20082;-91
2023/12/11 10:36:09;;;;;;;13.15;2.03;;;10.20;99.90;;;;;;6337984;22;20009;-92
2023/12/11 10:38:41;;;;;;;7.30;2.08;;;10.30;99.90;;;;;;6338147;22;20030;-94
2023/12/11 10:41:26;;;;;;;8.65;2.33;;;10.20;99.90;;;;;;6337208;22;20003;-92
2023/12/11 10:43:51;;;;;;;11.82;2.33;;;10.20;99.90;;;;;;6338728;22;20061;-90
2023/12/11 10:46:32;;;;;;;20.98;3.17;;;10.20;99.90;;;;;;6339757;22;20007;-92
2023/12/11 10:49:01;;;;;;;10.23;2.25;;;10.10;99.90;;;;;;6338486;22;20014;-92
2023/12/11 10:51:28;;;;;;;7.35;2.38;;;11.10;99.90;;;;;;6338518;22;20044;-90
2023/12/11 10:53:54;;;;;;;18.08;2.75;;;10.80;99.90;;;;;;6337511;22;19995;-90
2023/12/11 10:56:27;;;;;;;15.15;2.65;;;11.10;99.90;;;;;;6339836;22;20009;-91
2023/12/11 10:58:53;;;;;;;11.15;3.03;;;10.30;99.90;;;;;;6343186;22;20006;-90
2023/12/11 11:01:19;;;;;;;14.35;2.97;;;10.90;99.90;;;;;;6362914;22;20034;-92
2023/12/11 11:03:54;;;;;;;8.18;2.22;;;10.50;99.90;;;;;;6348155;22;20010;-90
2023/12/11 11:06:22;;;;;;;12.25;2.60;;;10.70;99.90;;;;;;6343292;22;20002;-91
2023/12/11 11:09:19;;;;;;;15.48;3.55;;;9.90;99.90;;;;;;6340730;22;20002;-92
2023/12/11 11:12:07;;;;;;;16.65;3.35;;;10.00;99.90;;;;;;6341834;22;20003;-91
2023/12/11 11:14:58;;;;;;;11.48;2.30;;;9.90;99.90;;;;;;6342344;22;20081;-92
2023/12/11 11:17:24;;;;;;;11.75;2.70;;;9.90;99.90;;;;;;6343720;22;19999;-92
2023/12/11 11:20:14;;;;;;;12.27;2.90;;;10.70;99.90;;;;;;6341344;22;20038;-92
2023/12/11 11:22:43;;;;;;;13.55;3.10;;;10.90;99.90;;;;;;6339592;22;20003;-92
2023/12/11 11:25:38;;;;;;;;;;;;;;;;;;;;;
2023/12/11 11:28:41;;;;;;;14.32;2.92;;;9.70;99.90;;;;;;6332418;22;20074;-92
2023/12/11 11:31:17;;;;;;;11.45;2.92;;;10.10;99.90;;;;;;6340888;22;20007;-92
2023/12/11 11:33:47;;;;;;;14.77;2.80;;;10.70;99.90;;;;;;6340249;22;20038;-92
2023/12/11 11:36:27;;;;;;;14.73;3.65;;;10.10;99.90;;;;;;6340607;22;19999;-92
2023/12/11 11:39:02;;;;;;;17.38;3.28;;;10.90;99.90;;;;;;6340274;22;20086;-93
2023/12/11 11:41:30;;;;;;;12.35;2.78;;;11.00;99.90;;;;;;6352447;22;20029;-92
2023/12/11 11:44:01;;;;;;;13.93;3.42;;;10.80;99.90;;;;;;6346772;22;20089;-91
2023/12/11 11:46:58;;;;;;;16.77;2.97;;;10.10;99.90;;;;;;6340613;22;20025;-92
2023/12/11 11:49:42;;;;;;;;;;;;;;;;;;;;;
2023/12/11 11:55:05;;;;;;;11.15;3.30;;;10.80;99.90;;;;;;6363181;22;20014;-92
2023/12/11 11:57:33;;;;;;;9.68;2.03;;;10.90;99.90;;;;;;6344443;22;20010;-91
2023/12/11 12:00:01;;;;;;;16.35;4.15;;;11.10;99.90;;;;;;6340984;22;20003;-91
2023/12/11 12:02:40;;;;;;;13.68;3.30;;;11.10;99.90;;;;;;6355796;22;20018;-92
2023/12/11 12:05:30;;;;;;;16.58;2.08;;;10.90;99.90;;;;;;6344467;22;20013;-92
2023/12/11 12:07:57;;;;;;;8.70;2.95;;;9.30;99.90;;;;;;6341840;22;19999;-91
2023/12/11 12:10:47;;;;;;;7.65;2.03;;;10.50;99.90;;;;;;6343546;22;20450;-92
2023/12/11 12:13:13;;;;;;;13.20;1.88;;;9.90;99.90;;;;;;6345800;22;20354;-93
2023/12/11 12:16:04;;;;;;;9.52;2.58;;;10.70;99.90;;;;;;6339275;22;20018;-92
2023/12/11 12:18:29;;;;;;;12.65;3.05;;;10.00;99.90;;;;;;6338722;22;20002;-91
2023/12/11 12:21:21;;;;;;;12.20;2.88;;;9.90;99.90;;;;;;6339687;22;20041;-91
2023/12/11 12:24:14;;;;;;;14.00;2.25;;;9.90;99.90;;;;;;6339449;22;20087;-91
2023/12/11 12:26:42;;;;;;;11.43;2.95;;;10.70;99.90;;;;;;6338615;22;20005;-91
2023/12/11 12:29:31;;;;;;;8.55;2.00;;;11.20;99.90;;;;;;6341846;22;20321;-91
2023/12/11 12:32:16;;;;;;;3.35;1.70;;;9.80;99.90;;;;;;6337406;22;20460;-90
2023/12/11 12:35:07;;;;;;;6.05;2.38;;;10.80;99.90;;;;;;6342886;22;20338;-93
2023/12/11 12:37:39;;;;;;;8.13;1.85;;;10.40;99.90;;;;;;6352831;22;20002;-93
2023/12/11 12:40:09;;;;;;;6.22;2.08;;;9.10;99.90;;;;;;6351445;22;19994;-90
2023/12/11 12:42:35;;;;;;;7.03;2.08;;;9.50;99.90;;;;;;6348435;22;20011;-92
2023/12/11 12:45:49;;;;;;;10.13;2.38;;;8.90;99.90;;;;;;6348849;22;20003;-92
2023/12/11 12:48:14;;;;;;;10.60;2.20;;;9.80;99.90;;;;;;6357298;22;20063;-93
2023/12/11 12:50:40;;;;;;;12.35;2.85;;;10.90;99.90;;;;;;6359273;22;20003;-92
2023/12/11 12:53:35;;;;;;;13.43;2.88;;;9.90;99.90;;;;;;6358242;22;20003;-94
2023/12/11 12:56:25;;;;;;;14.90;3.20;;;9.90;99.90;;;;;;6346480;22;20007;-94
2023/12/11 12:59:11;;;;;;;10.45;2.33;;;9.90;99.90;;;;;;6344704;22;20003;-94
2023/12/11 13:02:00;;;;;;;12.13;3.10;;;9.90;99.90;;;;;;6333945;22;20011;-94
2023/12/11 13:04:30;;;;;;;13.95;3.05;;;9.50;99.90;;;;;;6319479;22;20011;-94
2023/12/11 13:07:15;;;;;;;11.00;2.25;;;10.00;99.90;;;;;;6332863;22;20014;-94
2023/12/11 13:10:10;;;;;;;10.73;2.90;;;9.30;99.90;;;;;;6320808;22;20006;-93
2023/12/11 13:12:54;;;;;;;6.93;2.50;;;10.10;99.90;;;;;;6320598;22;20073;-93
2023/12/11 13:15:51;;;;;;;10.02;2.17;;;10.80;99.90;;;;;;6319521;22;20435;-93
2023/12/11 13:18:39;;;;;;;8.85;2.95;;;10.10;99.90;;;;;;6319985;22;20003;-93
2023/12/11 13:21:33;;;;;;;11.50;2.53;;;10.10;99.90;;;;;;6315231;22;20316;-93
2023/12/11 13:23:58;;;;;;;17.33;3.70;;;9.50;99.90;;;;;;6314863;22;20424;-94
2023/12/11 13:26:46;;;;;;;13.35;3.42;;;10.20;99.90;;;;;;6263431;22;20006;-94
2023/12/11 13:29:13;;;;;;;14.57;3.33;;;9.40;99.90;;;;;;6314860;22;20072;-94
2023/12/11 13:32:04;;;;;;;19.17;3.47;;;10.20;99.90;;;;;;6316083;22;20009;-94
2023/12/11 13:34:30;;;;;;;11.27;2.38;;;10.20;99.90;;;;;;6314357;22;20003;-92
2023/12/11 13:37:16;;;;;;;14.02;2.33;;;10.20;99.90;;;;;;6309661;22;20297;-93
2023/12/11 13:40:11;;;;;;;9.85;2.90;;;10.20;99.90;;;;;;6322933;22;20049;-93
2023/12/11 13:43:00;;;;;;;13.75;2.85;;;10.30;99.90;;;;;;6329420;22;20007;-91
2023/12/11 13:45:28;;;;;;;8.27;2.30;;;9.50;99.90;;;;;;6318441;22;20033;-94
2023/12/11 13:48:18;;;;;;;8.55;2.30;;;10.20;99.90;;;;;;6319091;22;20242;-92
2023/12/11 13:50:44;;;;;;;14.70;3.20;;;10.10;99.90;;;;;;6317571;22;20007;-93
2023/12/11 13:53:35;;;;;;;10.98;2.50;;;10.80;99.90;;;;;;6317837;22;20217;-92
2023/12/11 13:56:26;;;;;;;14.60;3.00;;;10.30;99.90;;;;;;6319194;22;20021;-94
2023/12/11 13:58:52;;;;;;;18.00;3.22;;;9.70;99.90;;;;;;6318494;22;20301;-93
2023/12/11 14:01:18;;;;;;;11.27;2.72;;;10.80;99.90;;;;;;6327669;22;20002;-93
2023/12/11 14:04:05;;;;;;;15.65;2.70;;;10.80;99.90;;;;;;6353490;22;20346;-93
2023/12/11 14:06:32;;;;;;;19.00;3.38;;;9.40;99.90;;;;;;6354844;22;20010;-94
2023/12/11 14:09:20;;;;;;;14.07;3.08;;;10.60;99.90;;;;;;6360271;22;20511;-95
2023/12/11 14:12:03;;;;;;;18.88;3.65;;;10.10;99.90;;;;;;6366677;22;20022;-94
2023/12/11 14:14:31;;;;;;;13.60;3.05;;;10.10;99.90;;;;;;6378053;22;20022;-94
2023/12/11 14:17:19;;;;;;;20.40;4.03;;;10.70;99.90;;;;;;6384177;22;20410;-93
2023/12/11 14:20:09;;;;;;;19.38;2.47;;;10.10;99.90;;;;;;6385981;22;20011;-93
2023/12/11 14:22:37;;;;;;;15.82;3.67;;;10.10;99.90;;;;;;6382229;22;20098;-94
2023/12/11 14:25:21;;;;;;;12.75;3.10;;;10.10;99.90;;;;;;6376940;22;20097;-93
2023/12/11 14:28:03;;;;;;;11.07;3.38;;;10.40;99.90;;;;;;6383458;22;20333;-95
2023/12/11 14:30:52;;;;;;;12.65;3.45;;;10.50;99.90;;;;;;6388603;22;20653;-93
2023/12/11 14:33:40;;;;;;;18.35;3.58;;;10.90;99.90;;;;;;6388834;22;19986;-92
2023/12/11 14:36:10;;;;;;;9.15;2.67;;;10.10;99.90;;;;;;6397020;22;20110;-94
2023/12/11 14:38:38;;;;;;;13.88;3.47;;;10.10;99.90;;;;;;6391724;22;19994;-93
2023/12/11 14:41:06;;;;;;;10.75;3.38;;;9.90;99.90;;;;;;6386662;22;20055;-93
2023/12/11 14:43:47;;;;;;;15.82;3.50;;;10.10;99.90;;;;;;6379123;22;20014;-93
2023/12/11 14:46:13;;;;;;;13.13;4.60;;;10.30;99.90;;;;;;6370215;22;20013;-93
2023/12/11 14:48:38;;;;;;;9.15;2.90;;;10.50;99.90;;;;;;6371210;22;20026;-93
2023/12/11 14:51:25;;;;;;;14.57;3.95;;;10.90;99.90;;;;;;6372869;22;20494;-91
2023/12/11 14:53:53;;;;;;;11.95;4.00;;;10.00;99.90;;;;;;6369740;22;20002;-91
2023/12/11 14:56:20;;;;;;;12.70;3.40;;;11.10;99.90;;;;;;6370643;22;20023;-92
2023/12/11 14:59:09;;;;;;;15.93;3.70;;;11.70;99.90;;;;;;6367353;22;20001;-90
2023/12/11 15:01:38;;;;;;;22.65;3.10;;;10.20;99.90;;;;;;6369361;22;19999;-90
2023/12/11 15:04:15;;;;;;;12.90;3.05;;;10.20;99.90;;;;;;6369589;22;20067;-90
2023/12/11 15:06:41;;;;;;;10.32;2.83;;;10.50;99.90;;;;;;6372688;22;20002;-92
2023/12/11 15:09:07;;;;;;;8.98;2.50;;;10.90;99.90;;;;;;6370407;22;20165;-94
2023/12/11 15:11:34;;;;;;;14.55;3.22;;;10.50;99.90;;;;;;6370099;22;20001;-92